πŸ“Š DonnΓ©es MΓ©tΓ©o - Bordeaux

Total mesures

14,329

TempΓ©rature moyenne

18.8Β°C

Temp. Min/Max

2.9Β° / 42.4Β°

HumiditΓ© moyenne

64.9%

Pression moyenne

1014.7 hPa
enregistrements
ID Date/Heure Temp (Β°C) HumiditΓ© (%) Pression (hPa) Tendance LuminositΓ© (lux) Situation
329 03/02/2026 08:45 8.4 76.0 994.2 β†’ Stable 11,664 pluvieux-gris
328 03/02/2026 08:15 7.8 79.0 994.2 β†’ Stable 4,728 pluvieux-gris
327 03/02/2026 08:00 7.6 80.0 994.2 β†’ Stable 3,240 pluvieux-gris
326 03/02/2026 07:45 7.5 81.0 993.8 β†’ Stable 1,572 pluvieux-gris
325 03/02/2026 07:30 7.5 81.0 993.8 β†’ Stable 0 pluvieux-gris
324 03/02/2026 07:15 7.5 81.0 993.8 β†’ Stable 0 pluvieux-gris
323 03/02/2026 07:00 7.6 82.0 993.8 β†’ Stable 0 pluvieux-gris
322 03/02/2026 06:45 7.6 83.0 993.2 β†’ Stable 0 pluvieux-gris
321 03/02/2026 06:30 7.7 84.0 993.2 β†’ Stable 0 pluvieux-gris
320 03/02/2026 06:15 7.8 86.0 993.2 β†’ Stable 0 pluvieux-gris
319 03/02/2026 05:45 7.9 88.0 992.5 β†’ Stable 0 pluvieux-gris
318 03/02/2026 05:30 7.5 90.0 992.5 β†’ Stable 0 pluvieux-gris
317 03/02/2026 05:15 7.5 92.0 992.5 β†’ Stable 0 pluvieux-gris
316 03/02/2026 05:00 7.5 94.0 992.5 β†’ Stable 0 pluvieux-gris
315 03/02/2026 04:45 7.5 94.0 992.3 β†’ Stable 0 pluvieux-gris
314 03/02/2026 04:30 7.6 94.0 992.3 β†’ Stable 0 pluvieux-gris
313 03/02/2026 04:15 7.6 93.0 992.3 β†’ Stable 0 pluvieux-gris
312 03/02/2026 04:00 7.7 92.0 992.3 β†’ Stable 0 pluvieux-gris
311 03/02/2026 03:45 7.9 91.0 991.9 β†’ Stable 0 pluvieux-gris
310 03/02/2026 03:30 8.2 90.0 991.9 β†’ Stable 0 pluvieux-gris
309 03/02/2026 03:15 8.4 90.0 991.9 β†’ Stable 0 pluvieux-gris
308 03/02/2026 03:00 8.6 89.0 991.9 β†’ Stable 0 pluvieux-gris
307 03/02/2026 02:45 8.5 91.0 991.5 β†’ Stable 0 pluvieux-gris
306 03/02/2026 02:30 8.6 90.0 991.5 β†’ Stable 0 pluvieux-gris
305 03/02/2026 02:15 8.6 90.0 991.5 β†’ Stable 0 pluvieux-gris
304 03/02/2026 02:00 8.7 89.0 991.5 β†’ Stable 0 pluvieux-gris
303 03/02/2026 01:45 8.7 89.0 990.8 β†’ Stable 0 pluvieux-gris
302 03/02/2026 01:15 8.6 88.0 990.8 β†’ Stable 0 pluvieux-gris
301 03/02/2026 01:00 8.6 88.0 990.9 β†’ Stable 0 pluvieux-gris
300 03/02/2026 00:45 8.7 88.0 990.1 β†’ Stable 0 pluvieux-gris
299 03/02/2026 00:30 8.9 88.0 990.1 β†’ Stable 0 pluvieux-gris
298 03/02/2026 00:15 9.0 87.0 990.1 β†’ Stable 0 pluvieux-gris
297 03/02/2026 00:00 9.2 87.0 990.1 β†’ Stable 0 pluvieux-gris
296 02/02/2026 23:45 9.3 87.0 989.4 β†’ Stable 0 pluvieux-gris
295 02/02/2026 23:30 9.4 87.0 989.4 β†’ Stable 0 pluvieux-gris
294 02/02/2026 23:15 9.5 87.0 989.4 β†’ Stable 0 pluvieux-gris
293 02/02/2026 23:00 9.3 88.0 989.9 β†’ Stable 0 pluvieux-gris
292 02/02/2026 22:45 9.4 88.0 989.9 β†’ Stable 0 pluvieux-gris
291 02/02/2026 22:30 9.5 89.0 989.9 β†’ Stable 0 pluvieux-gris
290 02/02/2026 22:15 9.6 89.0 989.9 β†’ Stable 0 pluvieux-gris
289 02/02/2026 21:45 9.8 88.0 989.2 β†’ Stable 0 pluvieux-gris
288 02/02/2026 21:30 9.9 87.0 989.2 β†’ Stable 0 pluvieux-gris
287 02/02/2026 21:15 10.0 86.0 989.2 β†’ Stable 0 pluvieux-gris
286 02/02/2026 21:00 10.1 85.0 989.2 β†’ Stable 0 pluvieux-gris
285 02/02/2026 20:45 10.2 85.0 988.7 β†’ Stable 0 pluvieux-gris
284 02/02/2026 20:30 10.3 87.0 988.7 β†’ Stable 0 pluvieux-gris
283 02/02/2026 20:15 10.4 88.0 988.7 β†’ Stable 0 pluvieux-gris
282 02/02/2026 19:45 10.8 87.0 988.4 β†’ Stable 0 pluvieux-gris
281 02/02/2026 19:30 11.0 85.0 988.4 β†’ Stable 0 pluvieux-gris
280 02/02/2026 19:15 11.3 84.0 988.4 β†’ Stable 0 pluvieux-gris
279 02/02/2026 19:00 11.5 83.0 988.4 β†’ Stable 0 pluvieux-gris
278 02/02/2026 18:45 11.0 89.0 987.6 β†’ Stable 0 pluvieux-gris
277 02/02/2026 18:30 11.2 86.0 987.6 β†’ Stable 0 pluvieux-gris
276 02/02/2026 18:15 11.5 84.0 987.6 β†’ Stable 0 pluvieux-gris
275 02/02/2026 18:00 11.8 83.0 987.6 β†’ Stable 0 pluvieux-gris
274 02/02/2026 17:45 12.0 84.0 987.2 β†’ Stable 0 pluvieux-gris
273 02/02/2026 17:30 12.3 87.0 987.2 β†’ Stable 0 pluvieux-gris
272 02/02/2026 17:15 12.6 90.0 987.2 β†’ Stable 0 pluvieux-gris
271 02/02/2026 17:00 12.9 91.0 987.2 β†’ Stable 648 pluvieux-gris
270 02/02/2026 16:45 13.1 90.0 986.4 β†’ Stable 1,392 pluvieux-gris
269 02/02/2026 16:30 13.4 89.0 986.4 β†’ Stable 3,420 pluvieux-gris
268 02/02/2026 16:15 13.7 86.0 986.4 β†’ Stable 5,088 pluvieux-gris
267 02/02/2026 16:00 13.9 84.0 986.4 β†’ Stable 6,672 pluvieux-gris
266 02/02/2026 15:45 13.7 85.0 986.3 β†’ Stable 7,872 pluvieux-gris
265 02/02/2026 15:30 14.1 82.0 986.3 β†’ Stable 14,448 pluvieux-gris
264 02/02/2026 15:15 14.5 78.0 986.3 β†’ Stable 22,032 pluvieux-gris
263 02/02/2026 15:00 14.7 76.0 986.3 β†’ Stable 28,524 pluvieux-gris
262 02/02/2026 14:45 14.7 75.0 986.1 β†’ Stable 30,924 pluvieux-gris
261 02/02/2026 14:30 14.6 75.0 986.1 ↓ Baisse 32,688 pluvieux-gris
260 02/02/2026 14:15 14.4 75.0 986.1 ↓ Baisse 37,680 pluvieux-gris
259 02/02/2026 13:45 14.0 76.0 986.6 β†’ Stable 43,428 pluvieux-gris
258 02/02/2026 13:30 13.7 77.0 986.6 β†’ Stable 38,892 pluvieux-gris
257 02/02/2026 13:15 13.5 78.0 986.9 β†’ Stable 44,904 pluvieux-gris
256 02/02/2026 13:00 13.9 74.0 986.9 β†’ Stable 49,260 pluvieux-gris
255 02/02/2026 12:45 13.7 74.0 988.1 β†’ Stable 49,812 pluvieux-gris
254 02/02/2026 12:30 13.5 75.0 988.1 ↓ Baisse 40,644 pluvieux-gris
253 02/02/2026 12:15 13.2 75.0 988.1 ↓ Baisse 45,648 pluvieux-gris
252 02/02/2026 11:45 12.6 77.0 988.6 β†’ Stable 48,144 pluvieux-gris
251 02/02/2026 11:30 12.1 77.0 988.6 ↓ Baisse 38,700 pluvieux-gris
250 02/02/2026 11:15 11.7 78.0 988.6 ↓ Baisse 34,164 pluvieux-gris
249 02/02/2026 11:00 11.2 81.0 989.5 β†’ Stable 30,744 pluvieux-gris
248 02/02/2026 10:45 11.1 80.0 989.8 β†’ Stable 29,532 pluvieux-gris
247 02/02/2026 10:30 11.1 80.0 989.8 ↓ Baisse 27,408 pluvieux-gris
246 02/02/2026 10:15 11.0 80.0 989.8 ↓ Baisse 22,596 pluvieux-gris
245 02/02/2026 09:45 10.7 83.0 990.9 β†’ Stable 17,496 pluvieux-gris
244 02/02/2026 09:15 10.3 88.0 990.9 ↓ Baisse 11,208 pluvieux-gris
243 02/02/2026 09:00 10.1 90.0 990.9 ↓ Baisse 8,892 pluvieux-gris
242 02/02/2026 08:45 9.9 91.0 991.3 ↓ Baisse 7,500 pluvieux-gris
241 02/02/2026 08:30 9.7 91.0 991.3 ↓ Baisse 6,480 pluvieux-gris
240 02/02/2026 08:15 9.6 91.0 991.3 ↓ Baisse 3,420 pluvieux-gris
239 02/02/2026 08:00 9.5 91.0 991.3 ↓ Baisse 1,572 pluvieux-gris
238 02/02/2026 07:45 9.4 91.0 991.7 ↓ Baisse 648 pluvieux-gris
237 02/02/2026 07:30 9.3 92.0 991.7 ↓ Baisse 0 pluvieux-gris
236 02/02/2026 07:15 9.2 92.0 991.7 ↓ Baisse 0 pluvieux-gris
235 02/02/2026 07:00 9.1 93.0 991.7 ↓ Baisse 0 pluvieux-gris
234 02/02/2026 06:45 9.0 94.0 993.2 ↓ Baisse 0 pluvieux-gris
233 02/02/2026 06:30 9.0 95.0 993.2 ↓ Baisse 0 pluvieux-gris
232 02/02/2026 06:15 8.9 95.0 993.2 ↓ Baisse 0 pluvieux-gris
231 02/02/2026 06:00 8.9 96.0 993.2 ↓ Baisse 0 pluvieux-gris
230 02/02/2026 05:45 8.9 96.0 994.5 ↓ Baisse 0 pluvieux-gris